sensor_id;sensor_type;location;lat;lon;timestamp;P1;durP1;ratioP1;P2;durP2;ratioP2
16766;SDS011;8501;49.926;8.404;2023-04-06T00:01:25;15.83;;;10.73;;
16766;SDS011;8501;49.926;8.404;2023-04-06T00:03:50;15.50;;;10.47;;
16766;SDS011;8501;49.926;8.404;2023-04-06T00:06:16;15.33;;;10.57;;
16766;SDS011;8501;49.926;8.404;2023-04-06T00:08:42;17.67;;;10.67;;
16766;SDS011;8501;49.926;8.404;2023-04-06T00:11:08;17.87;;;10.73;;
16766;SDS011;8501;49.926;8.404;2023-04-06T00:13:33;15.63;;;10.43;;
16766;SDS011;8501;49.926;8.404;2023-04-06T00:15:59;17.10;;;10.23;;
16766;SDS011;8501;49.926;8.404;2023-04-06T00:18:24;15.50;;;10.07;;
16766;SDS011;8501;49.926;8.404;2023-04-06T00:20:51;17.87;;;10.13;;
16766;SDS011;8501;49.926;8.404;2023-04-06T00:23:17;13.40;;;9.70;;
16766;SDS011;8501;49.926;8.404;2023-04-06T00:25:42;15.03;;;10.37;;
16766;SDS011;8501;49.926;8.404;2023-04-06T00:28:08;16.03;;;10.00;;
16766;SDS011;8501;49.926;8.404;2023-04-06T00:30:33;13.23;;;9.57;;
16766;SDS011;8501;49.926;8.404;2023-04-06T00:32:59;15.13;;;9.10;;
16766;SDS011;8501;49.926;8.404;2023-04-06T00:35:25;15.30;;;9.40;;
16766;SDS011;8501;49.926;8.404;2023-04-06T00:37:51;15.50;;;9.97;;
16766;SDS011;8501;49.926;8.404;2023-04-06T00:40:16;13.93;;;9.47;;
16766;SDS011;8501;49.926;8.404;2023-04-06T00:42:42;13.87;;;9.90;;
16766;SDS011;8501;49.926;8.404;2023-04-06T00:45:08;14.43;;;10.37;;
16766;SDS011;8501;49.926;8.404;2023-04-06T00:47:34;15.20;;;9.47;;
16766;SDS011;8501;49.926;8.404;2023-04-06T00:49:59;15.17;;;10.17;;
16766;SDS011;8501;49.926;8.404;2023-04-06T00:52:25;13.33;;;9.57;;
16766;SDS011;8501;49.926;8.404;2023-04-06T00:54:51;16.83;;;9.93;;
16766;SDS011;8501;49.926;8.404;2023-04-06T00:57:16;16.70;;;10.40;;
16766;SDS011;8501;49.926;8.404;2023-04-06T00:59:42;15.37;;;9.90;;
16766;SDS011;8501;49.926;8.404;2023-04-06T01:02:08;16.07;;;10.20;;
16766;SDS011;8501;49.926;8.404;2023-04-06T01:04:34;16.23;;;10.97;;
16766;SDS011;8501;49.926;8.404;2023-04-06T01:06:59;17.60;;;10.87;;
16766;SDS011;8501;49.926;8.404;2023-04-06T01:09:28;18.67;;;11.40;;
16766;SDS011;8501;49.926;8.404;2023-04-06T01:11:55;16.83;;;10.70;;
16766;SDS011;8501;49.926;8.404;2023-04-06T01:14:24;16.27;;;10.67;;
16766;SDS011;8501;49.926;8.404;2023-04-06T01:16:50;18.13;;;11.07;;
16766;SDS011;8501;49.926;8.404;2023-04-06T01:19:16;18.17;;;11.83;;
16766;SDS011;8501;49.926;8.404;2023-04-06T01:21:42;16.80;;;11.40;;
16766;SDS011;8501;49.926;8.404;2023-04-06T01:24:07;17.57;;;11.70;;
16766;SDS011;8501;49.926;8.404;2023-04-06T01:26:34;17.43;;;11.07;;
16766;SDS011;8501;49.926;8.404;2023-04-06T01:29:00;20.77;;;11.40;;
16766;SDS011;8501;49.926;8.404;2023-04-06T01:31:27;18.90;;;11.70;;
16766;SDS011;8501;49.926;8.404;2023-04-06T01:33:53;18.80;;;11.97;;
16766;SDS011;8501;49.926;8.404;2023-04-06T01:36:20;19.53;;;11.77;;
16766;SDS011;8501;49.926;8.404;2023-04-06T01:38:45;18.00;;;11.50;;
16766;SDS011;8501;49.926;8.404;2023-04-06T01:41:11;16.83;;;10.73;;
16766;SDS011;8501;49.926;8.404;2023-04-06T01:43:37;18.73;;;10.20;;
16766;SDS011;8501;49.926;8.404;2023-04-06T01:46:02;13.87;;;9.90;;
16766;SDS011;8501;49.926;8.404;2023-04-06T01:48:28;15.60;;;9.47;;
16766;SDS011;8501;49.926;8.404;2023-04-06T01:50:54;17.23;;;9.20;;
16766;SDS011;8501;49.926;8.404;2023-04-06T01:53:20;14.30;;;9.47;;
16766;SDS011;8501;49.926;8.404;2023-04-06T01:55:46;16.30;;;9.67;;
16766;SDS011;8501;49.926;8.404;2023-04-06T01:58:11;14.47;;;9.30;;
16766;SDS011;8501;49.926;8.404;2023-04-06T02:00:37;15.40;;;9.43;;
16766;SDS011;8501;49.926;8.404;2023-04-06T02:03:03;17.33;;;9.60;;
16766;SDS011;8501;49.926;8.404;2023-04-06T02:05:29;15.83;;;9.67;;
16766;SDS011;8501;49.926;8.404;2023-04-06T02:07:56;13.80;;;9.53;;
16766;SDS011;8501;49.926;8.404;2023-04-06T02:10:22;15.10;;;10.10;;
16766;SDS011;8501;49.926;8.404;2023-04-06T02:12:48;15.87;;;10.30;;
16766;SDS011;8501;49.926;8.404;2023-04-06T02:15:14;17.23;;;10.07;;
16766;SDS011;8501;49.926;8.404;2023-04-06T02:17:40;16.30;;;9.93;;
16766;SDS011;8501;49.926;8.404;2023-04-06T02:20:06;17.13;;;10.10;;
16766;SDS011;8501;49.926;8.404;2023-04-06T02:22:32;19.10;;;10.67;;
16766;SDS011;8501;49.926;8.404;2023-04-06T02:24:58;18.90;;;10.20;;
16766;SDS011;8501;49.926;8.404;2023-04-06T02:27:24;16.87;;;10.47;;
16766;SDS011;8501;49.926;8.404;2023-04-06T02:29:49;17.03;;;10.30;;
16766;SDS011;8501;49.926;8.404;2023-04-06T02:32:15;16.60;;;10.60;;
16766;SDS011;8501;49.926;8.404;2023-04-06T02:34:40;15.67;;;10.40;;
16766;SDS011;8501;49.926;8.404;2023-04-06T02:37:06;14.70;;;9.87;;
16766;SDS011;8501;49.926;8.404;2023-04-06T02:39:31;15.07;;;9.73;;
16766;SDS011;8501;49.926;8.404;2023-04-06T02:41:57;15.97;;;10.47;;
16766;SDS011;8501;49.926;8.404;2023-04-06T02:44:22;15.33;;;10.30;;
16766;SDS011;8501;49.926;8.404;2023-04-06T02:46:48;17.80;;;10.40;;
16766;SDS011;8501;49.926;8.404;2023-04-06T02:49:13;16.57;;;9.90;;
16766;SDS011;8501;49.926;8.404;2023-04-06T02:51:39;18.43;;;10.37;;
16766;SDS011;8501;49.926;8.404;2023-04-06T02:54:05;14.63;;;10.20;;
16766;SDS011;8501;49.926;8.404;2023-04-06T02:56:30;15.83;;;10.57;;
16766;SDS011;8501;49.926;8.404;2023-04-06T02:58:56;14.43;;;9.93;;
16766;SDS011;8501;49.926;8.404;2023-04-06T03:01:21;16.20;;;10.07;;
16766;SDS011;8501;49.926;8.404;2023-04-06T03:03:47;18.63;;;11.17;;
16766;SDS011;8501;49.926;8.404;2023-04-06T03:06:12;17.53;;;10.53;;
16766;SDS011;8501;49.926;8.404;2023-04-06T03:08:38;16.67;;;10.63;;
16766;SDS011;8501;49.926;8.404;2023-04-06T03:11:04;17.03;;;9.93;;
16766;SDS011;8501;49.926;8.404;2023-04-06T03:13:29;15.77;;;10.03;;
16766;SDS011;8501;49.926;8.404;2023-04-06T03:15:55;15.70;;;9.80;;
16766;SDS011;8501;49.926;8.404;2023-04-06T03:18:21;16.87;;;10.57;;
16766;SDS011;8501;49.926;8.404;2023-04-06T03:20:48;16.53;;;9.53;;
16766;SDS011;8501;49.926;8.404;2023-04-06T03:23:13;15.47;;;9.07;;
16766;SDS011;8501;49.926;8.404;2023-04-06T03:25:39;16.97;;;9.50;;
16766;SDS011;8501;49.926;8.404;2023-04-06T03:28:04;15.00;;;9.20;;
16766;SDS011;8501;49.926;8.404;2023-04-06T03:30:30;15.77;;;9.33;;
16766;SDS011;8501;49.926;8.404;2023-04-06T03:32:55;16.43;;;9.20;;
16766;SDS011;8501;49.926;8.404;2023-04-06T03:35:21;15.73;;;9.60;;
16766;SDS011;8501;49.926;8.404;2023-04-06T03:37:47;16.73;;;8.67;;
16766;SDS011;8501;49.926;8.404;2023-04-06T03:40:15;15.67;;;9.23;;
16766;SDS011;8501;49.926;8.404;2023-04-06T03:42:41;17.40;;;9.47;;
16766;SDS011;8501;49.926;8.404;2023-04-06T03:45:06;16.03;;;8.80;;
16766;SDS011;8501;49.926;8.404;2023-04-06T03:47:32;16.43;;;8.80;;
16766;SDS011;8501;49.926;8.404;2023-04-06T03:49:58;16.53;;;9.17;;
16766;SDS011;8501;49.926;8.404;2023-04-06T03:52:23;15.73;;;8.53;;
16766;SDS011;8501;49.926;8.404;2023-04-06T03:54:49;14.13;;;8.33;;
16766;SDS011;8501;49.926;8.404;2023-04-06T03:57:14;15.30;;;8.63;;
16766;SDS011;8501;49.926;8.404;2023-04-06T03:59:40;20.60;;;9.00;;
16766;SDS011;8501;49.926;8.404;2023-04-06T04:02:06;13.97;;;8.97;;
16766;SDS011;8501;49.926;8.404;2023-04-06T04:04:31;15.93;;;9.50;;
16766;SDS011;8501;49.926;8.404;2023-04-06T04:06:57;14.23;;;9.30;;
16766;SDS011;8501;49.926;8.404;2023-04-06T04:09:22;17.23;;;10.00;;
16766;SDS011;8501;49.926;8.404;2023-04-06T04:11:48;15.97;;;9.67;;
16766;SDS011;8501;49.926;8.404;2023-04-06T04:14:13;12.50;;;8.27;;
16766;SDS011;8501;49.926;8.404;2023-04-06T04:16:39;14.07;;;8.20;;
16766;SDS011;8501;49.926;8.404;2023-04-06T04:19:06;13.20;;;8.57;;
16766;SDS011;8501;49.926;8.404;2023-04-06T04:21:31;14.20;;;8.77;;
16766;SDS011;8501;49.926;8.404;2023-04-06T04:23:57;16.63;;;8.83;;
16766;SDS011;8501;49.926;8.404;2023-04-06T04:26:22;17.73;;;9.80;;
16766;SDS011;8501;49.926;8.404;2023-04-06T04:28:48;17.07;;;9.63;;
16766;SDS011;8501;49.926;8.404;2023-04-06T04:31:13;15.50;;;9.03;;
16766;SDS011;8501;49.926;8.404;2023-04-06T04:33:39;14.50;;;9.57;;
16766;SDS011;8501;49.926;8.404;2023-04-06T04:36:05;16.17;;;9.20;;
16766;SDS011;8501;49.926;8.404;2023-04-06T04:38:30;18.00;;;9.70;;
16766;SDS011;8501;49.926;8.404;2023-04-06T04:40:56;17.37;;;9.60;;
16766;SDS011;8501;49.926;8.404;2023-04-06T04:43:21;15.33;;;9.90;;
16766;SDS011;8501;49.926;8.404;2023-04-06T04:45:47;16.73;;;10.20;;
16766;SDS011;8501;49.926;8.404;2023-04-06T04:48:12;16.80;;;10.13;;
16766;SDS011;8501;49.926;8.404;2023-04-06T04:50:38;14.33;;;10.13;;
16766;SDS011;8501;49.926;8.404;2023-04-06T04:53:03;14.67;;;9.63;;
16766;SDS011;8501;49.926;8.404;2023-04-06T04:55:32;14.87;;;10.13;;
16766;SDS011;8501;49.926;8.404;2023-04-06T04:57:58;13.73;;;9.20;;
16766;SDS011;8501;49.926;8.404;2023-04-06T05:00:23;15.63;;;10.00;;
16766;SDS011;8501;49.926;8.404;2023-04-06T05:02:49;19.07;;;10.10;;
16766;SDS011;8501;49.926;8.404;2023-04-06T05:05:14;17.60;;;9.47;;
16766;SDS011;8501;49.926;8.404;2023-04-06T05:07:40;13.40;;;8.90;;
16766;SDS011;8501;49.926;8.404;2023-04-06T05:10:06;15.93;;;8.73;;
16766;SDS011;8501;49.926;8.404;2023-04-06T05:12:31;16.13;;;9.27;;
16766;SDS011;8501;49.926;8.404;2023-04-06T05:14:57;14.40;;;8.53;;
16766;SDS011;8501;49.926;8.404;2023-04-06T05:17:23;14.33;;;8.57;;
16766;SDS011;8501;49.926;8.404;2023-04-06T05:19:48;18.57;;;9.67;;
16766;SDS011;8501;49.926;8.404;2023-04-06T05:22:14;16.53;;;9.47;;
16766;SDS011;8501;49.926;8.404;2023-04-06T05:24:42;14.57;;;9.03;;
16766;SDS011;8501;49.926;8.404;2023-04-06T05:27:08;15.77;;;9.80;;
16766;SDS011;8501;49.926;8.404;2023-04-06T05:29:33;19.07;;;10.70;;
16766;SDS011;8501;49.926;8.404;2023-04-06T05:31:59;18.13;;;10.40;;
16766;SDS011;8501;49.926;8.404;2023-04-06T05:36:55;19.70;;;10.10;;
16766;SDS011;8501;49.926;8.404;2023-04-06T05:39:21;16.27;;;9.90;;
16766;SDS011;8501;49.926;8.404;2023-04-06T05:41:46;15.83;;;9.80;;
16766;SDS011;8501;49.926;8.404;2023-04-06T05:44:13;16.30;;;9.63;;
16766;SDS011;8501;49.926;8.404;2023-04-06T05:46:38;16.83;;;9.50;;
16766;SDS011;8501;49.926;8.404;2023-04-06T05:49:04;15.13;;;9.70;;
16766;SDS011;8501;49.926;8.404;2023-04-06T05:51:29;14.77;;;9.50;;
16766;SDS011;8501;49.926;8.404;2023-04-06T05:53:55;16.57;;;9.93;;
16766;SDS011;8501;49.926;8.404;2023-04-06T05:56:20;15.80;;;9.80;;
16766;SDS011;8501;49.926;8.404;2023-04-06T05:58:46;17.43;;;9.50;;
16766;SDS011;8501;49.926;8.404;2023-04-06T06:01:11;13.13;;;9.07;;
16766;SDS011;8501;49.926;8.404;2023-04-06T06:03:37;15.73;;;8.87;;
16766;SDS011;8501;49.926;8.404;2023-04-06T06:06:04;14.83;;;9.67;;
16766;SDS011;8501;49.926;8.404;2023-04-06T06:08:30;16.53;;;9.70;;
16766;SDS011;8501;49.926;8.404;2023-04-06T06:10:55;16.33;;;9.77;;
16766;SDS011;8501;49.926;8.404;2023-04-06T06:13:22;15.17;;;9.77;;
16766;SDS011;8501;49.926;8.404;2023-04-06T06:15:48;16.03;;;10.23;;
16766;SDS011;8501;49.926;8.404;2023-04-06T06:18:14;15.60;;;10.03;;
16766;SDS011;8501;49.926;8.404;2023-04-06T06:20:40;15.57;;;9.90;;
16766;SDS011;8501;49.926;8.404;2023-04-06T06:23:05;16.77;;;10.07;;
16766;SDS011;8501;49.926;8.404;2023-04-06T06:25:31;17.90;;;10.03;;
16766;SDS011;8501;49.926;8.404;2023-04-06T06:27:57;17.40;;;10.17;;
16766;SDS011;8501;49.926;8.404;2023-04-06T06:30:23;15.57;;;9.73;;
16766;SDS011;8501;49.926;8.404;2023-04-06T06:32:49;17.60;;;9.97;;
16766;SDS011;8501;49.926;8.404;2023-04-06T06:35:15;16.43;;;10.17;;
16766;SDS011;8501;49.926;8.404;2023-04-06T06:37:41;16.73;;;10.37;;
16766;SDS011;8501;49.926;8.404;2023-04-06T06:40:08;18.10;;;10.70;;
16766;SDS011;8501;49.926;8.404;2023-04-06T06:42:35;17.53;;;10.57;;
16766;SDS011;8501;49.926;8.404;2023-04-06T06:45:00;17.30;;;10.27;;
16766;SDS011;8501;49.926;8.404;2023-04-06T06:47:26;18.53;;;11.67;;
16766;SDS011;8501;49.926;8.404;2023-04-06T06:49:51;15.30;;;10.57;;
16766;SDS011;8501;49.926;8.404;2023-04-06T06:52:17;14.67;;;10.50;;
16766;SDS011;8501;49.926;8.404;2023-04-06T06:54:42;19.27;;;11.13;;
16766;SDS011;8501;49.926;8.404;2023-04-06T06:57:08;20.17;;;11.20;;
16766;SDS011;8501;49.926;8.404;2023-04-06T06:59:34;19.60;;;11.07;;
16766;SDS011;8501;49.926;8.404;2023-04-06T07:01:59;19.57;;;11.40;;
16766;SDS011;8501;49.926;8.404;2023-04-06T07:04:25;23.43;;;12.90;;
16766;SDS011;8501;49.926;8.404;2023-04-06T07:06:51;22.37;;;13.03;;
16766;SDS011;8501;49.926;8.404;2023-04-06T07:09:17;21.57;;;12.33;;
16766;SDS011;8501;49.926;8.404;2023-04-06T07:11:43;20.97;;;11.83;;
16766;SDS011;8501;49.926;8.404;2023-04-06T07:14:09;20.33;;;13.03;;
16766;SDS011;8501;49.926;8.404;2023-04-06T07:16:34;21.50;;;12.93;;
16766;SDS011;8501;49.926;8.404;2023-04-06T07:19:00;21.77;;;12.80;;
16766;SDS011;8501;49.926;8.404;2023-04-06T07:21:25;21.03;;;12.70;;
16766;SDS011;8501;49.926;8.404;2023-04-06T07:23:51;20.57;;;13.30;;
16766;SDS011;8501;49.926;8.404;2023-04-06T07:26:17;23.03;;;13.90;;
16766;SDS011;8501;49.926;8.404;2023-04-06T07:28:42;22.70;;;13.53;;
16766;SDS011;8501;49.926;8.404;2023-04-06T07:31:08;20.90;;;13.80;;
16766;SDS011;8501;49.926;8.404;2023-04-06T07:33:34;20.60;;;13.33;;
16766;SDS011;8501;49.926;8.404;2023-04-06T07:35:59;19.07;;;12.67;;
16766;SDS011;8501;49.926;8.404;2023-04-06T07:38:25;19.70;;;13.07;;
16766;SDS011;8501;49.926;8.404;2023-04-06T07:40:50;22.67;;;12.53;;
16766;SDS011;8501;49.926;8.404;2023-04-06T07:43:16;22.03;;;13.20;;
16766;SDS011;8501;49.926;8.404;2023-04-06T07:45:41;23.70;;;12.73;;
16766;SDS011;8501;49.926;8.404;2023-04-06T07:48:07;19.10;;;13.07;;
16766;SDS011;8501;49.926;8.404;2023-04-06T07:50:32;23.33;;;14.10;;
16766;SDS011;8501;49.926;8.404;2023-04-06T07:52:58;21.63;;;13.77;;
16766;SDS011;8501;49.926;8.404;2023-04-06T07:55:25;20.83;;;13.53;;
16766;SDS011;8501;49.926;8.404;2023-04-06T07:57:51;24.47;;;14.50;;
16766;SDS011;8501;49.926;8.404;2023-04-06T08:00:16;19.23;;;12.97;;
16766;SDS011;8501;49.926;8.404;2023-04-06T08:02:42;23.13;;;14.10;;
16766;SDS011;8501;49.926;8.404;2023-04-06T08:05:07;23.73;;;14.20;;
16766;SDS011;8501;49.926;8.404;2023-04-06T08:07:33;22.90;;;13.73;;
16766;SDS011;8501;49.926;8.404;2023-04-06T08:10:00;22.57;;;13.80;;
16766;SDS011;8501;49.926;8.404;2023-04-06T08:12:26;21.97;;;14.30;;
16766;SDS011;8501;49.926;8.404;2023-04-06T08:14:51;21.70;;;14.10;;
16766;SDS011;8501;49.926;8.404;2023-04-06T08:17:17;21.10;;;13.53;;
16766;SDS011;8501;49.926;8.404;2023-04-06T08:19:43;24.60;;;14.87;;
16766;SDS011;8501;49.926;8.404;2023-04-06T08:22:09;24.67;;;14.77;;
16766;SDS011;8501;49.926;8.404;2023-04-06T08:24:35;25.67;;;15.07;;
16766;SDS011;8501;49.926;8.404;2023-04-06T08:27:00;22.73;;;14.63;;
16766;SDS011;8501;49.926;8.404;2023-04-06T08:29:26;23.30;;;15.20;;
16766;SDS011;8501;49.926;8.404;2023-04-06T08:31:51;23.03;;;14.60;;
16766;SDS011;8501;49.926;8.404;2023-04-06T08:34:17;24.97;;;15.47;;
16766;SDS011;8501;49.926;8.404;2023-04-06T08:36:42;24.90;;;15.03;;
16766;SDS011;8501;49.926;8.404;2023-04-06T08:39:08;23.07;;;14.83;;
16766;SDS011;8501;49.926;8.404;2023-04-06T08:41:34;23.57;;;15.07;;
16766;SDS011;8501;49.926;8.404;2023-04-06T08:44:00;27.80;;;16.00;;
16766;SDS011;8501;49.926;8.404;2023-04-06T08:46:28;30.93;;;16.00;;
16766;SDS011;8501;49.926;8.404;2023-04-06T08:49:04;24.37;;;15.60;;
16766;SDS011;8501;49.926;8.404;2023-04-06T08:51:31;22.87;;;15.50;;
16766;SDS011;8501;49.926;8.404;2023-04-06T08:53:58;26.57;;;15.83;;
16766;SDS011;8501;49.926;8.404;2023-04-06T08:56:24;22.03;;;14.70;;
16766;SDS011;8501;49.926;8.404;2023-04-06T08:58:54;21.80;;;14.53;;
16766;SDS011;8501;49.926;8.404;2023-04-06T09:01:21;24.57;;;15.37;;
16766;SDS011;8501;49.926;8.404;2023-04-06T09:03:49;24.87;;;16.33;;
16766;SDS011;8501;49.926;8.404;2023-04-06T09:06:15;24.30;;;15.27;;
16766;SDS011;8501;49.926;8.404;2023-04-06T09:08:41;22.87;;;15.43;;
16766;SDS011;8501;49.926;8.404;2023-04-06T09:11:07;23.67;;;15.27;;
16766;SDS011;8501;49.926;8.404;2023-04-06T09:16:12;25.30;;;15.43;;
16766;SDS011;8501;49.926;8.404;2023-04-06T09:18:38;23.93;;;15.40;;
16766;SDS011;8501;49.926;8.404;2023-04-06T09:21:04;25.10;;;14.73;;
16766;SDS011;8501;49.926;8.404;2023-04-06T09:23:31;23.87;;;15.77;;
16766;SDS011;8501;49.926;8.404;2023-04-06T09:26:09;24.73;;;16.23;;
16766;SDS011;8501;49.926;8.404;2023-04-06T09:28:45;23.07;;;15.67;;
16766;SDS011;8501;49.926;8.404;2023-04-06T09:31:16;25.13;;;15.43;;
16766;SDS011;8501;49.926;8.404;2023-04-06T09:33:46;26.33;;;15.70;;
16766;SDS011;8501;49.926;8.404;2023-04-06T09:36:12;27.33;;;16.17;;
16766;SDS011;8501;49.926;8.404;2023-04-06T09:38:56;25.23;;;15.60;;
16766;SDS011;8501;49.926;8.404;2023-04-06T09:41:24;25.40;;;15.77;;
16766;SDS011;8501;49.926;8.404;2023-04-06T09:44:04;27.13;;;16.50;;
16766;SDS011;8501;49.926;8.404;2023-04-06T09:46:39;23.40;;;15.30;;
16766;SDS011;8501;49.926;8.404;2023-04-06T09:49:06;25.63;;;15.20;;
16766;SDS011;8501;49.926;8.404;2023-04-06T09:51:39;23.53;;;15.03;;
16766;SDS011;8501;49.926;8.404;2023-04-06T09:54:15;22.73;;;15.03;;
16766;SDS011;8501;49.926;8.404;2023-04-06T09:56:47;23.83;;;16.10;;
16766;SDS011;8501;49.926;8.404;2023-04-06T10:02:18;22.10;;;13.80;;
16766;SDS011;8501;49.926;8.404;2023-04-06T10:05:08;22.63;;;14.20;;
16766;SDS011;8501;49.926;8.404;2023-04-06T10:07:37;23.17;;;14.73;;
16766;SDS011;8501;49.926;8.404;2023-04-06T10:10:05;28.47;;;15.60;;
16766;SDS011;8501;49.926;8.404;2023-04-06T10:12:31;24.27;;;14.80;;
16766;SDS011;8501;49.926;8.404;2023-04-06T10:14:57;27.73;;;17.07;;
16766;SDS011;8501;49.926;8.404;2023-04-06T10:17:22;27.33;;;15.70;;
16766;SDS011;8501;49.926;8.404;2023-04-06T10:22:29;22.53;;;13.70;;
16766;SDS011;8501;49.926;8.404;2023-04-06T10:25:07;21.37;;;12.93;;
16766;SDS011;8501;49.926;8.404;2023-04-06T10:27:33;22.57;;;13.60;;
16766;SDS011;8501;49.926;8.404;2023-04-06T10:30:02;22.27;;;14.60;;
16766;SDS011;8501;49.926;8.404;2023-04-06T10:32:33;21.17;;;13.70;;
16766;SDS011;8501;49.926;8.404;2023-04-06T10:35:05;20.90;;;13.13;;
16766;SDS011;8501;49.926;8.404;2023-04-06T10:37:45;23.13;;;13.40;;
16766;SDS011;8501;49.926;8.404;2023-04-06T10:40:24;21.20;;;13.13;;
16766;SDS011;8501;49.926;8.404;2023-04-06T10:42:51;21.47;;;12.93;;
16766;SDS011;8501;49.926;8.404;2023-04-06T10:45:22;19.30;;;10.73;;
16766;SDS011;8501;49.926;8.404;2023-04-06T10:47:54;21.57;;;12.73;;
16766;SDS011;8501;49.926;8.404;2023-04-06T10:50:21;22.33;;;12.80;;
16766;SDS011;8501;49.926;8.404;2023-04-06T10:52:47;21.40;;;13.10;;
16766;SDS011;8501;49.926;8.404;2023-04-06T10:55:24;23.40;;;13.17;;
16766;SDS011;8501;49.926;8.404;2023-04-06T10:57:51;19.67;;;12.87;;
16766;SDS011;8501;49.926;8.404;2023-04-06T11:00:17;21.17;;;13.83;;
16766;SDS011;8501;49.926;8.404;2023-04-06T11:02:44;20.60;;;13.33;;
16766;SDS011;8501;49.926;8.404;2023-04-06T11:05:11;22.00;;;13.37;;
16766;SDS011;8501;49.926;8.404;2023-04-06T11:07:37;20.73;;;11.90;;
16766;SDS011;8501;49.926;8.404;2023-04-06T11:10:04;21.83;;;12.00;;
16766;SDS011;8501;49.926;8.404;2023-04-06T11:12:29;19.77;;;11.50;;
16766;SDS011;8501;49.926;8.404;2023-04-06T11:14:56;22.40;;;11.50;;
16766;SDS011;8501;49.926;8.404;2023-04-06T11:17:31;20.77;;;11.87;;
16766;SDS011;8501;49.926;8.404;2023-04-06T11:19:58;21.80;;;12.13;;
16766;SDS011;8501;49.926;8.404;2023-04-06T11:22:24;20.83;;;12.03;;
16766;SDS011;8501;49.926;8.404;2023-04-06T11:24:50;20.93;;;11.90;;
16766;SDS011;8501;49.926;8.404;2023-04-06T11:27:17;20.07;;;12.13;;
16766;SDS011;8501;49.926;8.404;2023-04-06T11:29:43;19.40;;;12.00;;
16766;SDS011;8501;49.926;8.404;2023-04-06T11:32:19;20.97;;;12.10;;
16766;SDS011;8501;49.926;8.404;2023-04-06T11:34:46;21.23;;;12.40;;
16766;SDS011;8501;49.926;8.404;2023-04-06T11:37:12;20.23;;;11.70;;
16766;SDS011;8501;49.926;8.404;2023-04-06T11:39:39;19.97;;;11.20;;
16766;SDS011;8501;49.926;8.404;2023-04-06T11:42:07;20.80;;;11.67;;
16766;SDS011;8501;49.926;8.404;2023-04-06T11:44:34;22.03;;;11.70;;
16766;SDS011;8501;49.926;8.404;2023-04-06T11:47:07;20.20;;;11.73;;
16766;SDS011;8501;49.926;8.404;2023-04-06T11:49:42;21.67;;;12.80;;
16766;SDS011;8501;49.926;8.404;2023-04-06T11:52:16;17.70;;;11.33;;
16766;SDS011;8501;49.926;8.404;2023-04-06T11:54:44;20.70;;;12.40;;
16766;SDS011;8501;49.926;8.404;2023-04-06T11:57:10;21.13;;;12.17;;
16766;SDS011;8501;49.926;8.404;2023-04-06T11:59:36;22.77;;;13.13;;
16766;SDS011;8501;49.926;8.404;2023-04-06T12:02:02;20.23;;;11.93;;
16766;SDS011;8501;49.926;8.404;2023-04-06T12:04:28;20.27;;;11.97;;
16766;SDS011;8501;49.926;8.404;2023-04-06T12:06:54;20.23;;;11.93;;
16766;SDS011;8501;49.926;8.404;2023-04-06T12:09:20;16.97;;;11.37;;
16766;SDS011;8501;49.926;8.404;2023-04-06T12:11:45;20.13;;;12.30;;
16766;SDS011;8501;49.926;8.404;2023-04-06T12:14:12;19.27;;;11.70;;
16766;SDS011;8501;49.926;8.404;2023-04-06T12:16:38;19.27;;;11.10;;
16766;SDS011;8501;49.926;8.404;2023-04-06T12:19:04;19.03;;;10.90;;
16766;SDS011;8501;49.926;8.404;2023-04-06T12:21:30;17.87;;;11.20;;
16766;SDS011;8501;49.926;8.404;2023-04-06T12:23:56;35.27;;;23.07;;
16766;SDS011;8501;49.926;8.404;2023-04-06T12:26:23;19.97;;;11.73;;
16766;SDS011;8501;49.926;8.404;2023-04-06T12:28:49;18.17;;;10.63;;
16766;SDS011;8501;49.926;8.404;2023-04-06T12:31:15;18.70;;;11.07;;
16766;SDS011;8501;49.926;8.404;2023-04-06T12:33:51;17.53;;;10.73;;
16766;SDS011;8501;49.926;8.404;2023-04-06T12:36:18;17.53;;;11.17;;
16766;SDS011;8501;49.926;8.404;2023-04-06T12:38:47;20.27;;;12.13;;
16766;SDS011;8501;49.926;8.404;2023-04-06T12:41:13;18.47;;;10.83;;
16766;SDS011;8501;49.926;8.404;2023-04-06T12:43:40;23.17;;;10.03;;
16766;SDS011;8501;49.926;8.404;2023-04-06T12:46:06;19.03;;;9.90;;
16766;SDS011;8501;49.926;8.404;2023-04-06T12:48:31;18.07;;;10.30;;
16766;SDS011;8501;49.926;8.404;2023-04-06T12:50:57;16.07;;;9.80;;
16766;SDS011;8501;49.926;8.404;2023-04-06T12:53:24;15.80;;;9.87;;
16766;SDS011;8501;49.926;8.404;2023-04-06T12:55:50;17.37;;;9.60;;
16766;SDS011;8501;49.926;8.404;2023-04-06T12:58:16;15.50;;;8.83;;
16766;SDS011;8501;49.926;8.404;2023-04-06T13:00:42;15.30;;;8.60;;
16766;SDS011;8501;49.926;8.404;2023-04-06T13:03:08;13.30;;;8.03;;
16766;SDS011;8501;49.926;8.404;2023-04-06T13:05:34;15.10;;;8.50;;
16766;SDS011;8501;49.926;8.404;2023-04-06T13:07:59;13.70;;;8.30;;
16766;SDS011;8501;49.926;8.404;2023-04-06T13:10:25;14.07;;;8.67;;
16766;SDS011;8501;49.926;8.404;2023-04-06T13:12:51;13.23;;;9.00;;
16766;SDS011;8501;49.926;8.404;2023-04-06T13:15:17;14.13;;;8.77;;
16766;SDS011;8501;49.926;8.404;2023-04-06T13:17:43;14.77;;;8.93;;
16766;SDS011;8501;49.926;8.404;2023-04-06T13:20:09;12.57;;;8.27;;
16766;SDS011;8501;49.926;8.404;2023-04-06T13:22:35;13.40;;;8.20;;
16766;SDS011;8501;49.926;8.404;2023-04-06T13:25:01;12.33;;;7.73;;
16766;SDS011;8501;49.926;8.404;2023-04-06T13:27:26;14.40;;;9.00;;
16766;SDS011;8501;49.926;8.404;2023-04-06T13:29:52;15.80;;;8.87;;
16766;SDS011;8501;49.926;8.404;2023-04-06T13:32:18;17.03;;;8.93;;
16766;SDS011;8501;49.926;8.404;2023-04-06T13:34:44;13.23;;;8.67;;
16766;SDS011;8501;49.926;8.404;2023-04-06T13:37:11;14.80;;;8.57;;
16766;SDS011;8501;49.926;8.404;2023-04-06T13:39:38;12.77;;;8.60;;
16766;SDS011;8501;49.926;8.404;2023-04-06T13:42:03;13.83;;;8.50;;
16766;SDS011;8501;49.926;8.404;2023-04-06T13:44:29;13.77;;;8.47;;
16766;SDS011;8501;49.926;8.404;2023-04-06T13:46:55;17.13;;;9.20;;
16766;SDS011;8501;49.926;8.404;2023-04-06T13:49:21;12.43;;;8.43;;
16766;SDS011;8501;49.926;8.404;2023-04-06T13:51:47;14.03;;;8.70;;
16766;SDS011;8501;49.926;8.404;2023-04-06T13:54:13;15.63;;;8.40;;
16766;SDS011;8501;49.926;8.404;2023-04-06T13:56:38;14.33;;;8.73;;
16766;SDS011;8501;49.926;8.404;2023-04-06T13:59:04;12.37;;;8.27;;
16766;SDS011;8501;49.926;8.404;2023-04-06T14:01:30;14.80;;;8.43;;
16766;SDS011;8501;49.926;8.404;2023-04-06T14:03:56;13.00;;;8.30;;
16766;SDS011;8501;49.926;8.404;2023-04-06T14:06:21;11.40;;;8.00;;
16766;SDS011;8501;49.926;8.404;2023-04-06T14:08:47;14.17;;;7.93;;
16766;SDS011;8501;49.926;8.404;2023-04-06T14:11:13;13.90;;;8.67;;
16766;SDS011;8501;49.926;8.404;2023-04-06T14:13:39;14.50;;;9.17;;
16766;SDS011;8501;49.926;8.404;2023-04-06T14:16:05;16.57;;;9.60;;
16766;SDS011;8501;49.926;8.404;2023-04-06T14:18:32;13.93;;;8.80;;
16766;SDS011;8501;49.926;8.404;2023-04-06T14:20:59;13.53;;;8.53;;
16766;SDS011;8501;49.926;8.404;2023-04-06T14:23:25;14.40;;;9.23;;
16766;SDS011;8501;49.926;8.404;2023-04-06T14:28:32;15.90;;;8.50;;
16766;SDS011;8501;49.926;8.404;2023-04-06T14:30:59;14.93;;;8.77;;
16766;SDS011;8501;49.926;8.404;2023-04-06T14:33:25;13.57;;;8.17;;
16766;SDS011;8501;49.926;8.404;2023-04-06T14:35:52;11.47;;;7.47;;
16766;SDS011;8501;49.926;8.404;2023-04-06T14:38:18;12.37;;;8.03;;
16766;SDS011;8501;49.926;8.404;2023-04-06T14:40:43;11.93;;;6.70;;
16766;SDS011;8501;49.926;8.404;2023-04-06T14:43:09;10.83;;;6.90;;
16766;SDS011;8501;49.926;8.404;2023-04-06T14:45:35;11.43;;;7.03;;
16766;SDS011;8501;49.926;8.404;2023-04-06T14:48:01;11.87;;;7.47;;
16766;SDS011;8501;49.926;8.404;2023-04-06T14:50:27;10.87;;;7.17;;